Time;durP1;ratioP1;P1;durP2;ratioP2;P2;SDS_P1;SDS_P2;PMS_P1;PMS_P2;Temp;Humidity;BMP_temperature;BMP_pressure;BME280_temperature;BME280_humidity;BME280_pressure;Samples;Min_cycle;Max_cycle;Signal;HPM_P1;HPM_P2
2022/05/20 00:01:12;;;;;;;8.80;7.95;;;;;;;;;;5001510;28;20282;-65
2022/05/20 00:03:40;;;;;;;9.85;7.35;;;;;;;;;;4995438;28;20668;-63
2022/05/20 00:06:07;;;;;;;8.73;7.15;;;;;;;;;;5002288;28;20732;-65
2022/05/20 00:08:34;;;;;;;8.45;6.60;;;;;;;;;;4979623;28;20219;-64
2022/05/20 00:11:02;;;;;;;7.55;6.80;;;;;;;;;;4976061;28;20223;-65
2022/05/20 00:13:29;;;;;;;7.70;7.00;;;;;;;;;;4970601;28;23574;-66
2022/05/20 00:15:57;;;;;;;12.88;7.38;;;;;;;;;;4993114;28;20212;-65
2022/05/20 00:18:24;;;;;;;7.60;6.68;;;;;;;;;;4994158;28;20780;-65
2022/05/20 00:20:52;;;;;;;9.50;7.47;;;;;;;;;;4979636;28;20281;-64
2022/05/20 00:23:20;;;;;;;8.90;6.85;;;;;;;;;;4988783;28;20731;-66
2022/05/20 00:25:47;;;;;;;7.85;6.88;;;;;;;;;;4974860;28;20207;-66
2022/05/20 00:28:15;;;;;;;24.85;16.30;;;;;;;;;;4970139;28;20216;-63
2022/05/20 00:30:43;;;;;;;11.80;8.52;;;;;;;;;;4970896;28;20265;-65
2022/05/20 00:33:10;;;;;;;16.52;13.32;;;;;;;;;;4972298;28;20212;-65
2022/05/20 00:35:38;;;;;;;10.75;7.75;;;;;;;;;;4974302;28;20854;-65
2022/05/20 00:38:05;;;;;;;12.00;7.70;;;;;;;;;;4971067;28;20230;-62
2022/05/20 00:40:34;;;;;;;10.45;7.60;;;;;;;;;;4952337;28;1179754;-65
2022/05/20 00:43:09;;;;;;;11.18;7.25;;;;;;;;;;4977336;28;20853;-64
2022/05/20 00:45:36;;;;;;;7.72;6.72;;;;;;;;;;4981525;28;20211;-64
2022/05/20 00:48:04;;;;;;;6.80;6.10;;;;;;;;;;4974139;28;20203;-67
2022/05/20 00:50:32;;;;;;;8.13;7.40;;;;;;;;;;4993773;28;20235;-63
2022/05/20 00:52:59;;;;;;;8.68;7.78;;;;;;;;;;4990983;28;20212;-66
2022/05/20 00:55:27;;;;;;;9.95;7.47;;;;;;;;;;4976408;28;20228;-64
2022/05/20 00:58:00;;;;;;;8.80;7.72;;;;;;;;;;4991088;28;20258;-66
2022/05/20 01:00:29;;;;;;;10.32;7.50;;;;;;;;;;4979433;28;20341;-64
2022/05/20 01:02:59;;;;;;;7.90;6.10;;;;;;;;;;4977702;28;20215;-65
2022/05/20 01:05:31;;;;;;;8.93;6.75;;;;;;;;;;5002897;28;20779;-65
2022/05/20 01:07:58;;;;;;;10.38;8.55;;;;;;;;;;4984312;28;20200;-67
2022/05/20 01:10:26;;;;;;;11.35;7.93;;;;;;;;;;4993706;28;20238;-65
2022/05/20 01:12:54;;;;;;;9.88;7.95;;;;;;;;;;4995168;28;20204;-64
2022/05/20 01:15:21;;;;;;;8.75;7.65;;;;;;;;;;4994134;28;20208;-65
2022/05/20 01:17:50;;;;;;;10.88;7.13;;;;;;;;;;4974392;28;20211;-66
2022/05/20 01:20:19;;;;;;;7.15;6.55;;;;;;;;;;4977689;28;20282;-66
2022/05/20 01:22:46;;;;;;;7.72;6.88;;;;;;;;;;4980216;28;20207;-65
2022/05/20 01:25:14;;;;;;;9.90;6.95;;;;;;;;;;4991553;28;20218;-64
2022/05/20 01:27:46;;;;;;;8.80;6.97;;;;;;;;;;4965991;28;20288;-65
2022/05/20 01:30:16;;;;;;;7.00;6.30;;;;;;;;;;4974260;28;20274;-64
2022/05/20 01:32:43;;;;;;;7.32;6.47;;;;;;;;;;4971099;28;20617;-64
2022/05/20 01:35:13;;;;;;;7.88;6.65;;;;;;;;;;4973908;28;20200;-64
2022/05/20 01:37:40;;;;;;;6.82;6.13;;;;;;;;;;4986021;28;22821;-64
2022/05/20 01:40:08;;;;;;;6.80;6.13;;;;;;;;;;4971331;28;20712;-64
2022/05/20 01:42:37;;;;;;;7.03;6.00;;;;;;;;;;4981978;28;20204;-66
2022/05/20 01:45:10;;;;;;;10.75;6.53;;;;;;;;;;4977326;28;20561;-64
2022/05/20 01:47:50;;;;;;;7.05;6.15;;;;;;;;;;4980911;28;20628;-64
2022/05/20 01:50:20;;;;;;;7.25;6.53;;;;;;;;;;4982350;28;20278;-63
2022/05/20 01:52:57;;;;;;;6.70;6.07;;;;;;;;;;4997245;28;20203;-64
2022/05/20 01:55:32;;;;;;;6.97;6.30;;;;;;;;;;4994615;28;20541;-65
2022/05/20 01:58:03;;;;;;;6.88;6.18;;;;;;;;;;4981238;28;20229;-62
2022/05/20 02:00:32;;;;;;;6.82;6.13;;;;;;;;;;4979287;28;20223;-64
2022/05/20 02:03:05;;;;;;;8.48;6.50;;;;;;;;;;4993697;28;20259;-62
2022/05/20 02:05:39;;;;;;;10.95;6.47;;;;;;;;;;5010756;28;20258;-65
2022/05/20 02:08:09;;;;;;;6.93;6.22;;;;;;;;;;5009277;28;20210;-64
2022/05/20 02:10:40;;;;;;;6.85;6.25;;;;;;;;;;4994385;28;20227;-65
2022/05/20 02:13:08;;;;;;;7.05;6.35;;;;;;;;;;4990210;28;20246;-64
2022/05/20 02:15:35;;;;;;;8.27;5.15;;;;;;;;;;4998719;28;20208;-63
2022/05/20 02:18:04;;;;;;;6.72;5.38;;;;;;;;;;4988240;28;20211;-63
2022/05/20 02:20:35;;;;;;;5.78;5.10;;;;;;;;;;5001440;28;20224;-64
2022/05/20 02:23:04;;;;;;;5.43;4.93;;;;;;;;;;4986572;28;20689;-64
2022/05/20 02:25:34;;;;;;;6.65;5.03;;;;;;;;;;4983655;28;20304;-64
2022/05/20 02:28:09;;;;;;;6.10;4.47;;;;;;;;;;4987501;28;20200;-66
2022/05/20 02:30:37;;;;;;;7.97;5.10;;;;;;;;;;4981644;28;20247;-66
2022/05/20 02:33:25;;;;;;;7.07;4.75;;;;;;;;;;4986874;28;20222;-65
2022/05/20 02:35:53;;;;;;;5.93;4.30;;;;;;;;;;5001252;28;20555;-65
2022/05/20 02:38:22;;;;;;;5.68;4.35;;;;;;;;;;4998575;28;20204;-66
2022/05/20 02:40:52;;;;;;;4.13;3.83;;;;;;;;;;4990334;28;20266;-66
2022/05/20 02:43:21;;;;;;;5.32;4.05;;;;;;;;;;4989476;28;20203;-66
2022/05/20 02:45:49;;;;;;;4.93;4.53;;;;;;;;;;4983433;28;20705;-64
2022/05/20 02:48:18;;;;;;;5.35;3.60;;;;;;;;;;4991519;28;20934;-64
2022/05/20 02:50:46;;;;;;;4.05;3.65;;;;;;;;;;4985574;28;20212;-64
2022/05/20 02:53:13;;;;;;;4.18;3.78;;;;;;;;;;4992913;28;20258;-64
2022/05/20 02:55:41;;;;;;;3.60;3.40;;;;;;;;;;5007735;28;20224;-66
2022/05/20 03:04:09;;;;;;;5.28;3.22;;;;;;;;;;4988415;28;20204;-65
2022/05/20 03:06:28;;;;;;;4.03;3.65;;;;;;;;;;5005768;28;20208;-64
2022/05/20 03:08:55;;;;;;;3.90;3.50;;;;;;;;;;5003565;28;20254;-66
2022/05/20 03:11:23;;;;;;;4.28;3.88;;;;;;;;;;4988069;28;20772;-65
2022/05/20 03:13:50;;;;;;;3.70;3.42;;;;;;;;;;4993711;28;20203;-64
2022/05/20 03:16:18;;;;;;;4.03;3.20;;;;;;;;;;4988576;28;20208;-66
2022/05/20 03:18:45;;;;;;;4.45;3.53;;;;;;;;;;5005912;28;20258;-66
2022/05/20 03:21:13;;;;;;;5.63;3.00;;;;;;;;;;4994297;28;20641;-66
2022/05/20 03:23:40;;;;;;;3.40;3.20;;;;;;;;;;4988324;28;20250;-65
2022/05/20 03:26:08;;;;;;;6.13;3.10;;;;;;;;;;5005531;28;20200;-66
2022/05/20 03:28:35;;;;;;;3.60;3.17;;;;;;;;;;4987046;28;20196;-65
2022/05/20 03:31:05;;;;;;;3.83;3.22;;;;;;;;;;4987180;28;20565;-66
2022/05/20 03:33:32;;;;;;;5.50;3.17;;;;;;;;;;4991640;28;20293;-66
2022/05/20 03:36:00;;;;;;;4.00;2.95;;;;;;;;;;4994998;28;20227;-66
2022/05/20 03:38:27;;;;;;;6.45;3.28;;;;;;;;;;4981593;28;20212;-67
2022/05/20 03:40:54;;;;;;;3.40;3.10;;;;;;;;;;4993691;28;20678;-65
2022/05/20 03:43:22;;;;;;;5.00;2.95;;;;;;;;;;4978896;28;20204;-67
2022/05/20 03:45:52;;;;;;;3.03;2.80;;;;;;;;;;4977718;28;20214;-66
2022/05/20 03:48:20;;;;;;;3.97;2.90;;;;;;;;;;4979038;28;20214;-65
2022/05/20 03:50:49;;;;;;;3.58;2.75;;;;;;;;;;4981964;28;20558;-65
2022/05/20 03:53:16;;;;;;;2.67;2.47;;;;;;;;;;4995863;28;20218;-65
2022/05/20 03:55:44;;;;;;;3.40;3.10;;;;;;;;;;4995291;28;20238;-65
2022/05/20 03:58:12;;;;;;;2.97;2.75;;;;;;;;;;4996560;28;20285;-66
2022/05/20 04:03:26;;;;;;;4.03;2.55;;;;;;;;;;4997900;28;20303;-64
2022/05/20 04:05:54;;;;;;;3.45;2.70;;;;;;;;;;4994043;28;20333;-64
2022/05/20 04:08:21;;;;;;;2.92;2.63;;;;;;;;;;4992226;28;20223;-65
2022/05/20 04:10:48;;;;;;;4.43;3.25;;;;;;;;;;4996455;28;20214;-64
2022/05/20 04:13:16;;;;;;;3.63;2.90;;;;;;;;;;4991499;28;20214;-65
2022/05/20 04:15:43;;;;;;;4.07;3.05;;;;;;;;;;4995892;28;20700;-66
2022/05/20 04:18:11;;;;;;;2.72;2.53;;;;;;;;;;4980604;28;20800;-67
2022/05/20 04:20:38;;;;;;;7.10;2.90;;;;;;;;;;4976551;28;20258;-65
2022/05/20 04:23:05;;;;;;;3.53;3.03;;;;;;;;;;4978418;28;20233;-67
2022/05/20 04:25:33;;;;;;;3.40;3.13;;;;;;;;;;4979390;28;20200;-65
2022/05/20 04:28:00;;;;;;;3.92;3.33;;;;;;;;;;4985158;28;20695;-65
2022/05/20 04:30:28;;;;;;;3.13;2.88;;;;;;;;;;4998650;28;20717;-66
2022/05/20 04:32:55;;;;;;;3.03;2.72;;;;;;;;;;4992519;28;20217;-66
2022/05/20 04:35:24;;;;;;;3.25;2.60;;;;;;;;;;4995853;28;20208;-64
2022/05/20 04:37:51;;;;;;;4.97;2.83;;;;;;;;;;4994115;28;20623;-65
2022/05/20 04:40:19;;;;;;;3.10;2.90;;;;;;;;;;4984022;28;20235;-66
2022/05/20 04:48:19;;;;;;;2.90;2.70;;;;;;;;;;4996233;28;20203;-66
2022/05/20 04:50:46;;;;;;;6.43;3.00;;;;;;;;;;4997030;28;20198;-67
2022/05/20 04:54:49;;;;;;;3.10;2.67;;;;;;;;;;4978567;28;20231;-65
2022/05/20 04:56:01;;;;;;;6.95;3.08;;;;;;;;;;5000182;28;20672;-66
2022/05/20 04:58:29;;;;;;;3.67;2.80;;;;;;;;;;4992905;28;20207;-64
2022/05/20 05:00:59;;;;;;;3.38;3.00;;;;;;;;;;4988376;28;20266;-66
2022/05/20 05:03:27;;;;;;;3.03;2.72;;;;;;;;;;4992099;28;20204;-66
2022/05/20 05:05:54;;;;;;;3.65;2.70;;;;;;;;;;4988851;28;20211;-66
2022/05/20 05:08:24;;;;;;;6.97;3.05;;;;;;;;;;5000617;28;20211;-65
2022/05/20 05:10:52;;;;;;;2.67;2.40;;;;;;;;;;4989225;28;20207;-65
2022/05/20 05:13:19;;;;;;;3.30;2.70;;;;;;;;;;4996406;28;20207;-66
2022/05/20 05:15:47;;;;;;;3.25;2.53;;;;;;;;;;5001855;28;20204;-65
2022/05/20 05:18:16;;;;;;;4.50;2.90;;;;;;;;;;4992309;28;20229;-65
2022/05/20 05:20:50;;;;;;;3.97;2.65;;;;;;;;;;5009399;28;20567;-66
2022/05/20 05:23:19;;;;;;;3.70;2.88;;;;;;;;;;5013471;28;20703;-65
2022/05/20 05:25:46;;;;;;;3.13;2.60;;;;;;;;;;5005057;28;20211;-66
2022/05/20 05:28:14;;;;;;;3.60;2.38;;;;;;;;;;5012576;28;20333;-67
2022/05/20 05:30:44;;;;;;;3.20;2.40;;;;;;;;;;4995998;28;20297;-64
2022/05/20 05:33:12;;;;;;;2.55;2.35;;;;;;;;;;4997460;28;20550;-66
2022/05/20 05:35:39;;;;;;;2.40;2.30;;;;;;;;;;4996307;28;20199;-65
2022/05/20 05:38:07;;;;;;;2.28;2.08;;;;;;;;;;4994908;28;20194;-67
2022/05/20 05:40:34;;;;;;;2.30;2.08;;;;;;;;;;4992789;28;20227;-66
2022/05/20 05:43:02;;;;;;;4.28;2.33;;;;;;;;;;4995981;28;20777;-66
2022/05/20 05:45:31;;;;;;;2.30;2.10;;;;;;;;;;4995822;28;20204;-66
2022/05/20 05:48:03;;;;;;;2.63;1.90;;;;;;;;;;4995415;28;20203;-65
2022/05/20 05:50:35;;;;;;;2.58;2.30;;;;;;;;;;4986749;28;20312;-65
2022/05/20 05:53:19;;;;;;;2.67;2.05;;;;;;;;;;5005870;28;20294;-66
2022/05/20 05:55:49;;;;;;;4.25;2.13;;;;;;;;;;4995920;28;20681;-66
2022/05/20 05:58:16;;;;;;;2.45;2.20;;;;;;;;;;4995065;28;20212;-65
2022/05/20 06:00:44;;;;;;;3.22;2.42;;;;;;;;;;5011785;28;20207;-66
2022/05/20 06:03:15;;;;;;;3.30;2.10;;;;;;;;;;4995791;28;20227;-66
2022/05/20 06:05:44;;;;;;;3.83;2.42;;;;;;;;;;5011693;28;20212;-65
2022/05/20 06:08:11;;;;;;;2.38;2.10;;;;;;;;;;5003252;28;20262;-67
2022/05/20 06:10:39;;;;;;;2.40;2.20;;;;;;;;;;5005975;28;20220;-67
2022/05/20 06:13:06;;;;;;;2.30;2.10;;;;;;;;;;4988437;28;20566;-67
2022/05/20 06:15:34;;;;;;;2.40;2.20;;;;;;;;;;4994200;28;20211;-65
2022/05/20 06:18:01;;;;;;;2.53;2.33;;;;;;;;;;4994930;28;20263;-66
2022/05/20 06:20:29;;;;;;;4.32;2.38;;;;;;;;;;4996076;28;20228;-65
2022/05/20 06:22:57;;;;;;;2.65;2.08;;;;;;;;;;4964168;28;20235;-67
2022/05/20 06:25:24;;;;;;;2.80;2.15;;;;;;;;;;4991316;28;20203;-67
2022/05/20 06:27:52;;;;;;;2.13;2.03;;;;;;;;;;5011458;28;20724;-66
2022/05/20 06:30:20;;;;;;;4.60;2.28;;;;;;;;;;5011542;28;20545;-66
2022/05/20 06:32:47;;;;;;;2.45;2.35;;;;;;;;;;5011340;28;20212;-67
2022/05/20 06:40:50;;;;;;;2.85;2.22;;;;;;;;;;5009881;28;20215;-65
2022/05/20 06:43:19;;;;;;;2.42;2.22;;;;;;;;;;5011104;28;20700;-67
2022/05/20 06:45:49;;;;;;;4.30;2.45;;;;;;;;;;5007825;28;20291;-66
2022/05/20 06:48:42;;;;;;;4.43;2.30;;;;;;;;;;4998004;28;20204;-66
2022/05/20 06:51:10;;;;;;;2.67;2.47;;;;;;;;;;4995149;28;20207;-67
2022/05/20 06:53:37;;;;;;;2.88;2.33;;;;;;;;;;4994259;28;20262;-66
2022/05/20 06:56:05;;;;;;;3.92;2.60;;;;;;;;;;4970337;28;20284;-65
2022/05/20 06:58:32;;;;;;;4.47;2.33;;;;;;;;;;4976748;28;20581;-67
2022/05/20 07:01:00;;;;;;;3.92;2.40;;;;;;;;;;4991325;28;20215;-67
2022/05/20 07:03:28;;;;;;;4.57;2.50;;;;;;;;;;4991177;28;20240;-67
2022/05/20 07:05:55;;;;;;;2.47;2.28;;;;;;;;;;4993921;28;20235;-66
2022/05/20 07:08:24;;;;;;;8.43;2.72;;;;;;;;;;4993905;28;20196;-65
2022/05/20 07:10:51;;;;;;;2.63;2.33;;;;;;;;;;4994237;28;20560;-66
2022/05/20 07:13:37;;;;;;;3.97;2.47;;;;;;;;;;4997007;28;20246;-66
2022/05/20 07:16:05;;;;;;;2.83;2.50;;;;;;;;;;4994634;28;20214;-66
2022/05/20 07:18:34;;;;;;;4.65;2.80;;;;;;;;;;4986615;28;20208;-66
2022/05/20 07:21:01;;;;;;;7.03;2.85;;;;;;;;;;4990530;28;20210;-67
2022/05/20 07:23:31;;;;;;;5.57;2.97;;;;;;;;;;4993778;28;20238;-66
2022/05/20 07:25:59;;;;;;;4.07;2.85;;;;;;;;;;4993973;28;20789;-66
2022/05/20 07:28:28;;;;;;;4.22;2.70;;;;;;;;;;4993750;28;20211;-65
2022/05/20 07:30:55;;;;;;;2.97;2.78;;;;;;;;;;4989108;28;20204;-66
2022/05/20 07:33:23;;;;;;;2.92;2.45;;;;;;;;;;4994315;28;20208;-66
2022/05/20 07:35:50;;;;;;;3.13;2.80;;;;;;;;;;4992234;28;20766;-66
2022/05/20 07:38:17;;;;;;;3.47;2.80;;;;;;;;;;4993938;28;20212;-66
2022/05/20 07:40:45;;;;;;;3.53;2.90;;;;;;;;;;4993827;28;20222;-66
2022/05/20 07:43:13;;;;;;;3.65;3.28;;;;;;;;;;4994369;28;20216;-67
2022/05/20 07:45:41;;;;;;;4.95;3.03;;;;;;;;;;4993378;28;20220;-66
2022/05/20 07:48:08;;;;;;;3.85;3.05;;;;;;;;;;4992480;28;20257;-67
2022/05/20 07:50:47;;;;;;;3.53;3.05;;;;;;;;;;5010635;28;20219;-67
2022/05/20 07:53:19;;;;;;;3.45;2.95;;;;;;;;;;4988761;28;20290;-67
2022/05/20 07:56:05;;;;;;;4.15;3.15;;;;;;;;;;5011372;28;20696;-66
2022/05/20 07:58:36;;;;;;;3.72;3.13;;;;;;;;;;5026613;28;20211;-67
2022/05/20 08:01:19;;;;;;;3.58;3.10;;;;;;;;;;4982223;28;20196;-69
2022/05/20 08:06:34;;;;;;;4.22;3.50;;;;;;;;;;5011502;28;20261;-67
2022/05/20 08:09:02;;;;;;;4.13;3.45;;;;;;;;;;4994364;28;20230;-66
2022/05/20 08:11:29;;;;;;;4.05;3.13;;;;;;;;;;4993872;28;20199;-67
2022/05/20 08:13:57;;;;;;;5.38;3.63;;;;;;;;;;4994397;28;20235;-67
2022/05/20 08:16:24;;;;;;;6.30;3.45;;;;;;;;;;5009542;28;20250;-66
2022/05/20 08:18:53;;;;;;;4.88;3.63;;;;;;;;;;4993568;28;20235;-66
2022/05/20 08:21:20;;;;;;;5.20;3.35;;;;;;;;;;5009346;28;20216;-65
2022/05/20 08:23:48;;;;;;;4.50;3.35;;;;;;;;;;4992840;28;20223;-66
2022/05/20 08:26:17;;;;;;;6.75;3.72;;;;;;;;;;4993372;28;20204;-66
2022/05/20 08:28:45;;;;;;;4.70;3.38;;;;;;;;;;4995173;28;20739;-65
2022/05/20 08:31:12;;;;;;;6.40;3.40;;;;;;;;;;4992850;28;20271;-66
2022/05/20 08:33:40;;;;;;;3.65;3.35;;;;;;;;;;4991800;28;20212;-67
2022/05/20 08:36:08;;;;;;;4.15;3.53;;;;;;;;;;4992881;28;20275;-66
2022/05/20 08:38:35;;;;;;;3.47;3.20;;;;;;;;;;4992279;28;20234;-66
2022/05/20 08:41:03;;;;;;;4.30;3.42;;;;;;;;;;4991747;28;20257;-66
2022/05/20 08:43:32;;;;;;;4.10;3.80;;;;;;;;;;4993041;28;20229;-67
2022/05/20 08:45:59;;;;;;;4.10;3.50;;;;;;;;;;4992886;28;20208;-66
2022/05/20 08:48:28;;;;;;;5.38;3.50;;;;;;;;;;4986413;28;20732;-66
2022/05/20 08:50:56;;;;;;;6.53;3.70;;;;;;;;;;4992625;28;20199;-66
2022/05/20 08:53:32;;;;;;;5.78;3.97;;;;;;;;;;4992718;28;20298;-66
2022/05/20 08:56:02;;;;;;;4.85;3.80;;;;;;;;;;4991900;28;20215;-66
2022/05/20 08:58:30;;;;;;;7.35;3.60;;;;;;;;;;4991456;28;20211;-66
2022/05/20 09:00:59;;;;;;;3.58;3.20;;;;;;;;;;4992605;28;20215;-66
2022/05/20 09:03:26;;;;;;;3.53;3.20;;;;;;;;;;4992362;28;20279;-66
2022/05/20 09:06:27;;;;;;;5.55;3.70;;;;;;;;;;4992943;28;20535;-66
2022/05/20 09:09:09;;;;;;;4.00;3.60;;;;;;;;;;4984946;28;20219;-66
2022/05/20 09:11:38;;;;;;;5.78;3.70;;;;;;;;;;4991093;28;20210;-65
2022/05/20 09:17:09;;;;;;;5.03;3.70;;;;;;;;;;5010018;28;20207;-66
2022/05/20 09:19:37;;;;;;;6.15;4.03;;;;;;;;;;4992905;28;20285;-66
2022/05/20 09:22:12;;;;;;;6.68;3.63;;;;;;;;;;4991702;28;20207;-67
2022/05/20 09:24:42;;;;;;;4.13;3.72;;;;;;;;;;4992038;28;20210;-67
2022/05/20 09:27:13;;;;;;;5.15;3.38;;;;;;;;;;4993309;28;20207;-67
2022/05/20 09:29:43;;;;;;;4.88;3.70;;;;;;;;;;4982840;28;20538;-66
2022/05/20 09:32:30;;;;;;;6.10;3.40;;;;;;;;;;4994240;28;20670;-66
2022/05/20 09:35:16;;;;;;;3.80;3.03;;;;;;;;;;4991404;28;20227;-66
2022/05/20 09:37:44;;;;;;;4.88;3.40;;;;;;;;;;4991688;28;20212;-67
2022/05/20 09:40:24;;;;;;;5.40;3.92;;;;;;;;;;4991711;28;20286;-66
2022/05/20 09:43:25;;;;;;;5.40;3.55;;;;;;;;;;5008624;28;20298;-66
2022/05/20 09:45:53;;;;;;;5.13;3.08;;;;;;;;;;5007800;28;20214;-66
2022/05/20 09:48:20;;;;;;;4.88;3.20;;;;;;;;;;4991758;28;20468;-66
2022/05/20 09:51:03;;;;;;;4.00;3.20;;;;;;;;;;4992288;28;20200;-66
2022/05/20 09:53:36;;;;;;;4.22;3.08;;;;;;;;;;4992140;28;20203;-65
2022/05/20 09:56:13;;;;;;;5.68;3.20;;;;;;;;;;5008361;28;20208;-67
2022/05/20 09:58:40;;;;;;;3.60;2.97;;;;;;;;;;4991554;28;21917;-66
2022/05/20 10:01:12;;;;;;;5.55;2.92;;;;;;;;;;4992140;28;20208;-66
2022/05/20 10:03:51;;;;;;;6.10;3.28;;;;;;;;;;4991395;28;20275;-66
2022/05/20 10:06:28;;;;;;;5.40;3.25;;;;;;;;;;4992415;28;20207;-67
2022/05/20 10:08:56;;;;;;;4.72;3.05;;;;;;;;;;5006360;28;20705;-67
2022/05/20 10:11:29;;;;;;;4.38;3.03;;;;;;;;;;5012635;28;20203;-66
2022/05/20 10:14:03;;;;;;;9.50;3.35;;;;;;;;;;4996045;28;20212;-66
2022/05/20 10:16:44;;;;;;;4.47;3.00;;;;;;;;;;4997267;28;20212;-66
2022/05/20 10:19:11;;;;;;;5.38;2.67;;;;;;;;;;5009225;28;20266;-66
2022/05/20 10:21:42;;;;;;;4.57;3.00;;;;;;;;;;4997041;28;20211;-65
2022/05/20 10:24:25;;;;;;;4.28;3.20;;;;;;;;;;4995786;28;20719;-67
2022/05/20 10:27:01;;;;;;;4.75;2.90;;;;;;;;;;4995151;28;20582;-66
2022/05/20 10:32:44;;;;;;;6.50;2.95;;;;;;;;;;5012652;28;20666;-67
2022/05/20 10:35:14;;;;;;;6.00;2.97;;;;;;;;;;5008271;28;20274;-67
2022/05/20 10:37:59;;;;;;;4.30;2.90;;;;;;;;;;4994579;28;20199;-66
2022/05/20 10:40:35;;;;;;;4.88;2.92;;;;;;;;;;5010057;28;20608;-66
2022/05/20 10:43:05;;;;;;;4.55;2.92;;;;;;;;;;4994812;28;20219;-66
2022/05/20 10:48:35;;;;;;;5.75;3.20;;;;;;;;;;5009921;28;20658;-67
2022/05/20 10:51:03;;;;;;;6.18;3.10;;;;;;;;;;4995170;28;20653;-67
2022/05/20 10:53:42;;;;;;;5.03;2.70;;;;;;;;;;4994097;28;20200;-67
2022/05/20 10:56:13;;;;;;;4.90;3.08;;;;;;;;;;4994470;28;20660;-67
2022/05/20 10:58:53;;;;;;;4.88;2.60;;;;;;;;;;5010531;28;20595;-68
2022/05/20 11:01:40;;;;;;;6.50;3.90;;;;;;;;;;4994542;28;20751;-67
2022/05/20 11:04:26;;;;;;;4.05;2.67;;;;;;;;;;4994815;28;20673;-67
2022/05/20 11:06:57;;;;;;;8.25;2.83;;;;;;;;;;4990116;28;20199;-66
2022/05/20 11:09:37;;;;;;;2.92;2.50;;;;;;;;;;4994432;28;20223;-66
2022/05/20 11:12:05;;;;;;;6.30;2.90;;;;;;;;;;4993940;28;20214;-66
2022/05/20 11:14:51;;;;;;;4.13;2.78;;;;;;;;;;4994470;28;20199;-66
2022/05/20 11:17:18;;;;;;;6.82;3.22;;;;;;;;;;4989201;28;20247;-66
2022/05/20 11:20:03;;;;;;;7.20;3.10;;;;;;;;;;5008316;28;20223;-66
2022/05/20 11:22:49;;;;;;;4.30;2.80;;;;;;;;;;4993632;28;20211;-65
2022/05/20 11:25:16;;;;;;;5.78;2.88;;;;;;;;;;4986501;28;20200;-67
2022/05/20 11:28:01;;;;;;;5.38;3.00;;;;;;;;;;5009071;28;20263;-67
2022/05/20 11:30:30;;;;;;;4.80;2.70;;;;;;;;;;4991398;28;20258;-67
2022/05/20 11:33:01;;;;;;;5.00;2.70;;;;;;;;;;5011856;28;20235;-66
2022/05/20 11:35:28;;;;;;;6.68;3.15;;;;;;;;;;4994895;28;20456;-66
2022/05/20 11:37:55;;;;;;;5.90;3.35;;;;;;;;;;4993679;28;20204;-66
2022/05/20 11:40:29;;;;;;;6.90;2.78;;;;;;;;;;4993202;28;20239;-66
2022/05/20 11:43:16;;;;;;;4.13;3.15;;;;;;;;;;4993440;28;20402;-66
2022/05/20 11:45:52;;;;;;;6.60;3.05;;;;;;;;;;4993376;28;20570;-66
2022/05/20 11:48:20;;;;;;;3.85;2.92;;;;;;;;;;4993133;28;20187;-67
2022/05/20 11:50:54;;;;;;;4.47;3.10;;;;;;;;;;4990617;28;20203;-66
2022/05/20 11:53:24;;;;;;;5.15;3.15;;;;;;;;;;4993860;28;20216;-66
2022/05/20 11:55:52;;;;;;;5.03;3.08;;;;;;;;;;4993168;28;20630;-66
2022/05/20 11:58:26;;;;;;;6.80;3.13;;;;;;;;;;5011397;28;20266;-66
2022/05/20 12:00:54;;;;;;;6.00;2.70;;;;;;;;;;4993611;28;20207;-66
2022/05/20 12:04:06;;;;;;;3.63;3.03;;;;;;;;;;4991443;28;20227;-66
2022/05/20 12:06:20;;;;;;;5.82;2.85;;;;;;;;;;5010406;28;20321;-66
2022/05/20 12:08:50;;;;;;;5.97;2.83;;;;;;;;;;5007048;28;20215;-66
2022/05/20 12:11:17;;;;;;;;;;;;;;;;;;4994131;28;20056;-66
2022/05/20 12:13:44;;;;;;;;;;;;;;;;;;4992827;28;19925;-67
2022/05/20 12:16:11;;;;;;;;;;;;;;;;;;4993778;28;20360;-67
2022/05/20 12:24:34;;;;;;;3.58;2.67;;;;;;;;;;5016136;28;20245;-67
2022/05/20 12:27:02;;;;;;;6.55;2.80;;;;;;;;;;4996038;28;20199;-66
2022/05/20 12:29:38;;;;;;;4.95;2.67;;;;;;;;;;4992947;28;20716;-65
2022/05/20 12:32:17;;;;;;;3.90;3.05;;;;;;;;;;4992388;28;20203;-66
2022/05/20 12:34:53;;;;;;;4.00;3.10;;;;;;;;;;4990616;28;20250;-66
2022/05/20 12:37:39;;;;;;;5.75;2.78;;;;;;;;;;4987695;28;20203;-66
2022/05/20 12:40:16;;;;;;;5.50;2.80;;;;;;;;;;4992903;28;20314;-66
2022/05/20 12:42:55;;;;;;;6.45;2.88;;;;;;;;;;4993025;28;20199;-65
2022/05/20 12:45:28;;;;;;;4.00;3.20;;;;;;;;;;4992712;28;20553;-66
2022/05/20 12:47:55;;;;;;;3.28;2.78;;;;;;;;;;5010824;28;20195;-66
2022/05/20 12:50:26;;;;;;;3.95;3.08;;;;;;;;;;4994456;28;20231;-66
2022/05/20 12:52:58;;;;;;;5.82;2.88;;;;;;;;;;5007160;28;20204;-66
2022/05/20 12:55:33;;;;;;;3.72;2.70;;;;;;;;;;4974659;28;20619;-67
2022/05/20 12:58:01;;;;;;;6.32;3.28;;;;;;;;;;4991531;28;20202;-66
2022/05/20 13:00:31;;;;;;;6.18;3.40;;;;;;;;;;4992970;28;20650;-67
2022/05/20 13:03:24;;;;;;;5.45;3.17;;;;;;;;;;4992494;28;20302;-66
2022/05/20 13:05:53;;;;;;;5.30;3.20;;;;;;;;;;4981116;28;20261;-66
2022/05/20 13:08:26;;;;;;;4.68;3.28;;;;;;;;;;4993036;28;20239;-65
2022/05/20 13:10:53;;;;;;;4.68;3.30;;;;;;;;;;4992086;28;20687;-66
2022/05/20 13:13:25;;;;;;;5.25;3.22;;;;;;;;;;5004613;28;20243;-65
2022/05/20 13:15:57;;;;;;;4.90;3.10;;;;;;;;;;5025283;28;20490;-63
2022/05/20 13:18:25;;;;;;;8.20;3.45;;;;;;;;;;5005396;28;20210;-65
2022/05/20 13:20:58;;;;;;;3.90;3.00;;;;;;;;;;5019862;28;20215;-67
2022/05/20 13:23:28;;;;;;;3.42;3.10;;;;;;;;;;4992378;28;20646;-65
2022/05/20 13:25:57;;;;;;;4.78;3.05;;;;;;;;;;5023612;28;20202;-65
2022/05/20 13:28:26;;;;;;;5.82;3.33;;;;;;;;;;5003213;28;20219;-65
2022/05/20 13:31:02;;;;;;;8.13;3.35;;;;;;;;;;5006450;28;20703;-65
2022/05/20 13:33:30;;;;;;;5.47;3.35;;;;;;;;;;5007704;28;20211;-65
2022/05/20 13:36:00;;;;;;;7.05;3.35;;;;;;;;;;5022712;28;20258;-65
2022/05/20 13:38:33;;;;;;;6.47;3.53;;;;;;;;;;4996451;28;20540;-65
2022/05/20 13:41:06;;;;;;;4.28;3.20;;;;;;;;;;5020455;28;20628;-65
2022/05/20 13:43:35;;;;;;;5.63;2.95;;;;;;;;;;4995359;28;20235;-65
2022/05/20 13:51:42;;;;;;;5.53;3.13;;;;;;;;;;5028348;28;20276;-65
2022/05/20 13:54:11;;;;;;;5.53;2.88;;;;;;;;;;5026978;28;20266;-65
2022/05/20 13:56:41;;;;;;;3.17;2.38;;;;;;;;;;5004350;28;20208;-65
2022/05/20 13:59:25;;;;;;;5.78;3.13;;;;;;;;;;5029048;28;20220;-65
2022/05/20 14:01:55;;;;;;;4.18;3.03;;;;;;;;;;5010446;28;20211;-66
2022/05/20 14:04:33;;;;;;;4.05;3.08;;;;;;;;;;5031186;28;20251;-66
2022/05/20 14:07:05;;;;;;;4.85;2.88;;;;;;;;;;5021418;28;20261;-65
2022/05/20 14:09:33;;;;;;;4.63;3.00;;;;;;;;;;5001117;28;20226;-66
2022/05/20 14:12:00;;;;;;;6.47;3.03;;;;;;;;;;5001895;28;20203;-65
2022/05/20 14:14:30;;;;;;;4.60;2.42;;;;;;;;;;5004421;28;20200;-65
2022/05/20 14:17:00;;;;;;;4.97;2.97;;;;;;;;;;5018509;28;20203;-67
2022/05/20 14:19:32;;;;;;;8.10;2.70;;;;;;;;;;4989959;28;20232;-67
2022/05/20 14:22:01;;;;;;;4.60;2.40;;;;;;;;;;4997694;28;20653;-66
2022/05/20 14:24:33;;;;;;;6.25;3.00;;;;;;;;;;4996887;28;20243;-67
2022/05/20 14:27:00;;;;;;;3.85;2.72;;;;;;;;;;5005166;28;20207;-66
2022/05/20 14:29:36;;;;;;;4.30;2.63;;;;;;;;;;4995523;28;20224;-66
2022/05/20 14:32:04;;;;;;;4.55;2.63;;;;;;;;;;4994587;28;20238;-66
2022/05/20 14:34:34;;;;;;;9.32;3.10;;;;;;;;;;5011532;28;20199;-67
2022/05/20 14:37:20;;;;;;;6.95;2.80;;;;;;;;;;4983363;28;20676;-67
2022/05/20 14:39:55;;;;;;;7.80;3.00;;;;;;;;;;4994881;28;20230;-67
2022/05/20 14:42:25;;;;;;;4.35;2.83;;;;;;;;;;4994989;28;20676;-67
2022/05/20 14:44:57;;;;;;;4.40;2.72;;;;;;;;;;4994815;28;20270;-67
2022/05/20 14:47:27;;;;;;;6.35;2.80;;;;;;;;;;4995093;28;20207;-67
2022/05/20 14:50:00;;;;;;;5.88;3.42;;;;;;;;;;4995587;28;20232;-66
2022/05/20 14:52:31;;;;;;;3.30;2.70;;;;;;;;;;4997572;28;20247;-66
2022/05/20 14:55:00;;;;;;;4.32;2.90;;;;;;;;;;4994951;28;20290;-67
2022/05/20 14:57:32;;;;;;;6.72;3.00;;;;;;;;;;4995389;28;20631;-67
2022/05/20 15:00:09;;;;;;;8.48;2.97;;;;;;;;;;4994811;28;20335;-66
2022/05/20 15:02:37;;;;;;;6.63;3.13;;;;;;;;;;4992516;28;20258;-65
2022/05/20 15:05:06;;;;;;;4.70;2.85;;;;;;;;;;4994799;28;20231;-66
2022/05/20 15:07:35;;;;;;;5.57;3.17;;;;;;;;;;4994858;28;20236;-65
2022/05/20 15:10:08;;;;;;;12.07;3.33;;;;;;;;;;4998484;28;20224;-64
2022/05/20 15:12:36;;;;;;;4.90;2.75;;;;;;;;;;4979373;28;20202;-67
2022/05/20 15:15:09;;;;;;;5.22;2.97;;;;;;;;;;4990531;28;20192;-65
2022/05/20 15:17:44;;;;;;;4.40;2.67;;;;;;;;;;4994834;28;20207;-66
2022/05/20 15:20:11;;;;;;;6.25;2.88;;;;;;;;;;4994570;28;20219;-67
2022/05/20 15:22:39;;;;;;;4.72;2.78;;;;;;;;;;4993958;28;20208;-66
2022/05/20 15:25:07;;;;;;;6.75;3.22;;;;;;;;;;4994774;28;20223;-67
2022/05/20 15:27:34;;;;;;;4.20;2.72;;;;;;;;;;4990274;28;20200;-67
2022/05/20 15:30:02;;;;;;;5.65;2.90;;;;;;;;;;4993881;28;20215;-66
2022/05/20 15:35:15;;;;;;;5.47;2.42;;;;;;;;;;5011693;28;20277;-67
2022/05/20 15:37:43;;;;;;;6.63;3.00;;;;;;;;;;4993711;28;20231;-67
2022/05/20 15:40:10;;;;;;;6.55;2.72;;;;;;;;;;4993924;28;20545;-66
2022/05/20 15:42:38;;;;;;;3.20;2.42;;;;;;;;;;4992153;28;20598;-65
2022/05/20 15:45:12;;;;;;;5.03;2.50;;;;;;;;;;4975515;28;20224;-66
2022/05/20 15:47:39;;;;;;;5.22;2.60;;;;;;;;;;4974598;28;20211;-66
2022/05/20 15:50:07;;;;;;;6.10;2.80;;;;;;;;;;4976791;28;20639;-66